createdAt,value
2022-11-09T00:03:35.862Z,17.17
2022-11-09T00:06:02.724Z,18.15
2022-11-09T00:08:29.890Z,17.80
2022-11-09T00:11:03.413Z,18.33
2022-11-09T00:13:30.254Z,19.08
2022-11-09T00:16:00.540Z,18.23
2022-11-09T00:18:27.362Z,16.70
2022-11-09T00:20:54.877Z,17.17
2022-11-09T00:23:23.752Z,17.08
2022-11-09T00:25:50.672Z,15.73
2022-11-09T00:28:17.523Z,16.10
2022-11-09T00:30:44.312Z,16.27
2022-11-09T00:33:12.430Z,14.20
2022-11-09T00:35:39.854Z,14.52
2022-11-09T00:38:06.759Z,13.25
2022-11-09T00:40:33.716Z,12.95
2022-11-09T00:43:00.524Z,13.10
2022-11-09T00:45:27.313Z,12.23
2022-11-09T00:47:54.123Z,12.57
2022-11-09T00:50:20.913Z,14.00
2022-11-09T00:52:48.672Z,14.25
2022-11-09T00:55:15.549Z,13.80
2022-11-09T00:57:42.498Z,13.43
2022-11-09T01:00:09.911Z,14.10
2022-11-09T01:02:36.692Z,14.55
2022-11-09T01:05:03.739Z,13.20
2022-11-09T01:07:33.494Z,13.75
2022-11-09T01:10:00.393Z,13.73
2022-11-09T01:12:27.267Z,13.55
2022-11-09T01:14:54.132Z,13.05
2022-11-09T01:17:21.488Z,11.45
2022-11-09T01:19:49.629Z,13.10
2022-11-09T01:22:17.556Z,11.02
2022-11-09T01:24:44.333Z,11.38
2022-11-09T01:27:11.518Z,10.77
2022-11-09T01:29:38.287Z,11.43
2022-11-09T01:32:05.564Z,11.85
2022-11-09T01:34:32.482Z,10.65
2022-11-09T01:36:59.398Z,13.05
2022-11-09T01:39:26.268Z,13.07
2022-11-09T01:41:53.093Z,13.55
2022-11-09T01:44:20.745Z,12.80
2022-11-09T01:47:26.946Z,14.05
2022-11-09T01:49:58.928Z,14.38
2022-11-09T01:52:37.764Z,12.75
2022-11-09T01:55:16.883Z,13.13
2022-11-09T01:57:53.399Z,12.95
2022-11-09T02:00:21.042Z,12.15
2022-11-09T02:03:03.285Z,11.95
2022-11-09T02:05:33.857Z,12.82
2022-11-09T02:10:37.056Z,12.18
2022-11-09T02:13:04.337Z,13.45
2022-11-09T02:15:31.338Z,13.63
2022-11-09T02:17:58.821Z,14.50
2022-11-09T02:20:27.663Z,14.93
2022-11-09T02:22:55.405Z,14.07
2022-11-09T02:27:47.944Z,14.18
2022-11-09T02:30:16.112Z,13.90
2022-11-09T02:32:43.038Z,13.52
2022-11-09T02:35:11.136Z,13.38
2022-11-09T02:37:40.827Z,13.10
2022-11-09T02:40:09.564Z,13.82
2022-11-09T02:42:36.656Z,14.20
2022-11-09T02:45:04.267Z,13.90
2022-11-09T02:47:31.236Z,13.02
2022-11-09T02:49:58.273Z,12.70
2022-11-09T02:52:25.325Z,13.15
2022-11-09T02:54:52.185Z,14.40
2022-11-09T02:57:19.164Z,13.73
2022-11-09T02:59:46.202Z,12.75
2022-11-09T03:02:13.180Z,13.43
2022-11-09T03:04:40.135Z,13.88
2022-11-09T03:07:08.305Z,11.85
2022-11-09T03:09:35.276Z,12.82
2022-11-09T03:12:22.145Z,13.75
2022-11-09T03:14:49.109Z,14.27
2022-11-09T03:17:19.071Z,14.25
2022-11-09T03:19:46.923Z,14.73
2022-11-09T03:22:13.910Z,13.10
2022-11-09T03:24:40.844Z,13.10
2022-11-09T03:27:08.060Z,14.50
2022-11-09T03:29:35.188Z,13.75
2022-11-09T03:32:02.095Z,13.98
2022-11-09T03:34:29.041Z,13.60
2022-11-09T03:36:55.953Z,14.00
2022-11-09T03:39:23.116Z,13.88
2022-11-09T03:41:50.241Z,13.27
2022-11-09T03:44:17.188Z,12.80
2022-11-09T03:46:44.137Z,13.13
2022-11-09T03:51:45.802Z,11.48
2022-11-09T03:54:12.621Z,11.13
2022-11-09T03:56:39.471Z,9.73
2022-11-09T03:59:06.205Z,9.43
2022-11-09T04:01:33.027Z,9.18
2022-11-09T04:03:59.905Z,8.95
2022-11-09T04:06:26.759Z,8.93
2022-11-09T04:08:53.518Z,7.95
2022-11-09T04:11:20.354Z,7.47
2022-11-09T04:13:47.609Z,7.15
2022-11-09T04:16:14.394Z,7.28
2022-11-09T04:18:41.102Z,7.93
2022-11-09T04:21:08.118Z,6.15
2022-11-09T04:23:34.883Z,6.15
2022-11-09T04:26:01.657Z,6.20
2022-11-09T04:28:28.408Z,6.63
2022-11-09T04:30:55.093Z,7.07
2022-11-09T04:33:22.304Z,6.93
2022-11-09T04:35:49.172Z,6.80
2022-11-09T04:38:15.908Z,7.22
2022-11-09T04:40:42.621Z,7.65
2022-11-09T04:43:13.272Z,7.28
2022-11-09T04:45:40.674Z,7.07
2022-11-09T04:48:08.214Z,6.28
2022-11-09T04:50:35.021Z,8.18
2022-11-09T04:53:28.011Z,7.47
2022-11-09T04:55:54.896Z,7.53
2022-11-09T04:58:24.950Z,7.00
2022-11-09T05:00:52.235Z,7.32
2022-11-09T05:03:19.137Z,6.40
2022-11-09T05:05:48.564Z,6.35
2022-11-09T05:08:15.435Z,6.63
2022-11-09T05:10:42.179Z,7.13
2022-11-09T05:13:12.023Z,6.32
2022-11-09T05:15:39.369Z,6.25
2022-11-09T05:18:06.952Z,6.80
2022-11-09T05:20:34.594Z,6.07
2022-11-09T05:23:20.054Z,7.32
2022-11-09T05:25:47.601Z,7.10
2022-11-09T05:28:14.987Z,7.68
2022-11-09T05:30:41.842Z,7.07
2022-11-09T05:33:08.581Z,7.10
2022-11-09T05:35:35.459Z,7.43
2022-11-09T05:38:02.248Z,6.55
2022-11-09T05:40:29.301Z,6.93
2022-11-09T05:42:56.819Z,7.75
2022-11-09T05:45:42.017Z,8.07
2022-11-09T05:48:09.890Z,7.95
2022-11-09T05:50:37.537Z,7.25
2022-11-09T05:53:04.260Z,7.90
2022-11-09T05:55:31.105Z,8.15
2022-11-09T05:57:58.163Z,8.10
2022-11-09T06:00:25.998Z,7.22
2022-11-09T06:02:52.896Z,8.00
2022-11-09T06:05:22.921Z,7.88
2022-11-09T06:07:49.702Z,7.80
2022-11-09T06:10:16.496Z,8.00
2022-11-09T06:12:43.177Z,7.63
2022-11-09T06:15:09.958Z,7.38
2022-11-09T06:17:36.685Z,8.13
2022-11-09T06:20:04.578Z,7.57
2022-11-09T06:22:31.289Z,7.97
2022-11-09T06:24:57.964Z,6.95
2022-11-09T06:27:24.632Z,7.40
2022-11-09T06:29:51.350Z,7.70
2022-11-09T06:32:17.999Z,7.55
2022-11-09T06:34:45.032Z,7.53
2022-11-09T06:37:11.772Z,7.93
2022-11-09T06:39:38.477Z,8.23
2022-11-09T06:42:05.312Z,7.65
2022-11-09T06:44:32.118Z,8.60
2022-11-09T06:46:58.834Z,8.02
2022-11-09T06:49:25.495Z,8.07
2022-11-09T06:51:52.727Z,7.80
2022-11-09T06:54:19.489Z,8.30
2022-11-09T06:56:46.157Z,9.10
2022-11-09T06:59:12.902Z,9.00
2022-11-09T07:01:39.645Z,9.70
2022-11-09T07:04:06.458Z,8.98
2022-11-09T07:06:33.156Z,9.23
2022-11-09T07:08:59.912Z,9.27
2022-11-09T07:11:26.951Z,9.57
2022-11-09T07:13:57.378Z,10.07
2022-11-09T07:16:24.701Z,9.50
2022-11-09T07:18:51.423Z,9.38
2022-11-09T07:21:18.856Z,9.82
2022-11-09T07:23:48.035Z,9.52
2022-11-09T07:26:15.812Z,8.47
2022-11-09T07:28:42.913Z,9.10
2022-11-09T07:31:10.406Z,9.50
2022-11-09T07:33:37.411Z,9.50
2022-11-09T07:36:05.755Z,8.40
2022-11-09T07:38:32.721Z,9.38
2022-11-09T07:41:00.656Z,8.65
2022-11-09T07:43:29.153Z,8.43
2022-11-09T07:45:56.249Z,8.10
2022-11-09T07:48:23.231Z,9.02
2022-11-09T07:50:50.433Z,9.45
2022-11-09T07:53:17.625Z,8.95
2022-11-09T07:55:44.691Z,9.02
2022-11-09T07:58:14.074Z,8.27
2022-11-09T08:00:42.596Z,8.35
2022-11-09T08:03:09.893Z,8.57
2022-11-09T08:05:37.455Z,8.82
2022-11-09T08:08:09.027Z,8.68
2022-11-09T08:10:36.585Z,8.75
2022-11-09T08:13:08.640Z,8.73
2022-11-09T08:15:36.576Z,8.60
2022-11-09T08:18:05.869Z,8.07
2022-11-09T08:20:33.876Z,8.90
2022-11-09T08:23:03.961Z,9.00
2022-11-09T08:25:33.446Z,8.45
2022-11-09T08:28:00.284Z,8.97
2022-11-09T08:30:27.426Z,8.15
2022-11-09T08:32:54.171Z,8.32
2022-11-09T08:35:23.320Z,8.02
2022-11-09T08:37:52.182Z,8.97
2022-11-09T08:40:24.153Z,8.75
2022-11-09T08:42:51.763Z,9.23
2022-11-09T08:45:21.781Z,8.25
2022-11-09T08:47:48.729Z,9.07
2022-11-09T08:50:16.576Z,9.30
2022-11-09T08:52:43.308Z,9.25
2022-11-09T08:55:13.299Z,8.77
2022-11-09T08:57:40.124Z,10.68
2022-11-09T09:00:07.686Z,8.25
2022-11-09T09:02:34.639Z,9.95
2022-11-09T09:05:02.464Z,9.40
2022-11-09T09:07:32.161Z,9.10
2022-11-09T09:09:58.962Z,10.50
2022-11-09T09:12:25.692Z,11.38
2022-11-09T09:14:52.468Z,8.80
2022-11-09T09:17:19.424Z,8.73
2022-11-09T09:19:49.813Z,9.25
2022-11-09T09:22:16.939Z,8.80
2022-11-09T09:24:43.671Z,9.68
2022-11-09T09:27:10.364Z,10.80
2022-11-09T09:29:37.079Z,9.60
2022-11-09T09:32:04.687Z,8.85
2022-11-09T09:34:31.562Z,10.05
2022-11-09T09:36:58.401Z,8.77
2022-11-09T09:39:25.186Z,9.13
2022-11-09T09:41:58.196Z,9.75
2022-11-09T09:44:33.677Z,9.40
2022-11-09T09:47:19.124Z,9.65
2022-11-09T09:50:14.838Z,10.10
2022-11-09T09:52:54.229Z,9.82
2022-11-09T09:55:36.209Z,32.33
2022-11-09T09:58:11.181Z,15.73
2022-11-09T10:00:39.489Z,10.52
2022-11-09T10:03:09.418Z,20.70
2022-11-09T10:06:25.801Z,11.52
2022-11-09T10:09:27.153Z,11.25
2022-11-09T10:12:02.494Z,14.45
2022-11-09T10:14:54.920Z,21.85
2022-11-09T10:17:33.911Z,12.82
2022-11-09T10:20:25.342Z,15.45
2022-11-09T10:23:22.237Z,13.07
2022-11-09T10:26:04.671Z,16.67
2022-11-09T10:29:14.502Z,20.65
2022-11-09T10:31:32.960Z,11.27
2022-11-09T10:34:12.880Z,12.23
2022-11-09T10:36:58.819Z,15.50
2022-11-09T10:39:29.307Z,17.77
2022-11-09T10:41:56.000Z,11.57
2022-11-09T10:44:22.791Z,11.45
2022-11-09T10:47:05.096Z,10.52
2022-11-09T10:49:32.191Z,10.73
2022-11-09T10:51:58.960Z,11.15
2022-11-09T10:54:30.108Z,11.65
2022-11-09T10:57:21.837Z,12.55
2022-11-09T10:59:51.202Z,12.93
2022-11-09T11:02:27.230Z,11.18
2022-11-09T11:05:16.720Z,12.23
2022-11-09T11:07:44.895Z,12.45
2022-11-09T11:10:18.595Z,10.82
2022-11-09T11:13:13.987Z,11.70
2022-11-09T11:15:42.525Z,11.35
2022-11-09T11:18:18.910Z,11.20
2022-11-09T11:20:48.746Z,10.68
2022-11-09T11:23:19.135Z,10.70
2022-11-09T11:25:52.142Z,11.05
2022-11-09T11:28:23.932Z,11.88
2022-11-09T11:30:51.390Z,11.60
2022-11-09T11:33:23.328Z,11.02
2022-11-09T11:36:14.012Z,10.18
2022-11-09T11:38:52.183Z,12.05
2022-11-09T11:41:37.156Z,11.20
2022-11-09T11:44:29.391Z,10.10
2022-11-09T11:47:39.204Z,10.57
2022-11-09T11:50:39.963Z,10.77
2022-11-09T11:53:31.283Z,10.02
2022-11-09T11:56:29.557Z,10.20
2022-11-09T11:59:10.415Z,10.95
2022-11-09T12:01:46.231Z,10.77
2022-11-09T12:04:44.087Z,13.57
2022-11-09T12:07:33.128Z,10.35
2022-11-09T12:10:17.327Z,11.13
2022-11-09T12:13:07.822Z,10.30
2022-11-09T12:16:00.463Z,10.38
2022-11-09T12:19:06.691Z,11.55
2022-11-09T12:21:52.274Z,10.65
2022-11-09T12:24:42.811Z,9.93
2022-11-09T12:27:33.776Z,9.60
2022-11-09T12:30:13.260Z,10.23
2022-11-09T12:33:03.327Z,9.95
2022-11-09T12:38:31.584Z,9.88
2022-11-09T12:41:13.132Z,9.80
2022-11-09T12:44:00.151Z,9.95
2022-11-09T12:46:40.363Z,9.48
2022-11-09T12:49:25.923Z,10.07
2022-11-09T12:51:57.941Z,11.00
2022-11-09T12:54:26.625Z,10.88
2022-11-09T12:57:01.636Z,10.73
2022-11-09T12:59:30.785Z,10.45
2022-11-09T13:01:59.467Z,19.87
2022-11-09T13:04:28.584Z,10.98
2022-11-09T13:07:04.479Z,10.77
2022-11-09T13:09:44.276Z,10.60
2022-11-09T13:14:58.585Z,9.73
2022-11-09T13:17:25.282Z,10.25
2022-11-09T13:19:56.681Z,9.18
2022-11-09T13:22:23.402Z,9.32
2022-11-09T13:25:01.479Z,9.02
2022-11-09T13:27:39.169Z,8.80
2022-11-09T13:30:24.922Z,10.25
2022-11-09T13:33:06.762Z,10.23
2022-11-09T13:35:42.921Z,17.70
2022-11-09T13:38:26.587Z,10.25
2022-11-09T13:41:03.352Z,9.18
2022-11-09T13:43:37.269Z,9.20
2022-11-09T13:46:34.186Z,9.75
2022-11-09T13:49:01.435Z,8.80
2022-11-09T13:51:37.182Z,8.75
2022-11-09T13:54:28.292Z,10.23
2022-11-09T13:57:02.376Z,8.10
2022-11-09T13:59:51.840Z,8.38
2022-11-09T14:02:24.678Z,9.63
2022-11-09T14:04:51.433Z,8.88
2022-11-09T14:07:32.998Z,8.82
2022-11-09T14:10:03.621Z,8.98
2022-11-09T14:13:01.633Z,8.48
2022-11-09T14:15:46.204Z,8.15
2022-11-09T14:18:31.434Z,8.48
2022-11-09T14:21:13.385Z,8.73
2022-11-09T14:23:40.585Z,10.10
2022-11-09T14:26:17.712Z,8.68
2022-11-09T14:28:44.484Z,9.32
2022-11-09T14:31:29.998Z,9.13
2022-11-09T14:34:06.269Z,9.13
2022-11-09T14:36:35.171Z,9.30
2022-11-09T14:39:05.014Z,8.90
2022-11-09T14:41:31.853Z,8.45
2022-11-09T14:44:00.653Z,9.38
2022-11-09T14:46:30.872Z,8.90
2022-11-09T14:49:02.627Z,7.80
2022-11-09T14:51:40.671Z,8.93
2022-11-09T14:54:13.439Z,10.00
2022-11-09T14:59:30.427Z,9.23
2022-11-09T15:02:04.576Z,8.93
2022-11-09T15:04:50.556Z,9.73
2022-11-09T15:07:21.149Z,9.38
2022-11-09T15:09:51.691Z,8.93
2022-11-09T15:12:21.565Z,9.48
2022-11-09T15:14:54.775Z,8.07
2022-11-09T15:17:27.028Z,8.88
2022-11-09T15:20:01.605Z,9.27
2022-11-09T15:22:59.484Z,9.18
2022-11-09T15:25:29.906Z,9.38
2022-11-09T15:28:25.125Z,9.23
2022-11-09T15:30:55.021Z,8.68
2022-11-09T15:33:39.529Z,9.55
2022-11-09T15:36:20.496Z,9.48
2022-11-09T15:39:00.461Z,10.02
2022-11-09T15:41:27.984Z,10.20
2022-11-09T15:43:55.294Z,10.15
2022-11-09T15:46:34.183Z,10.60
2022-11-09T15:49:11.053Z,9.98
2022-11-09T15:51:37.851Z,10.73
2022-11-09T15:54:04.856Z,11.73
2022-11-09T15:56:31.594Z,11.05
2022-11-09T15:58:58.292Z,12.10
2022-11-09T16:01:25.507Z,10.85
2022-11-09T16:03:52.375Z,11.20
2022-11-09T16:06:19.484Z,10.95
2022-11-09T16:08:50.411Z,11.13
2022-11-09T16:11:17.885Z,10.93
2022-11-09T16:13:45.168Z,10.38
2022-11-09T16:16:14.727Z,10.93
2022-11-09T16:18:42.121Z,11.10
2022-11-09T16:21:11.594Z,10.32
2022-11-09T16:23:38.622Z,10.70
2022-11-09T16:26:11.979Z,10.55
2022-11-09T16:28:40.644Z,11.48
2022-11-09T16:31:08.127Z,11.27
2022-11-09T16:33:35.364Z,11.70
2022-11-09T16:36:21.778Z,11.45
2022-11-09T16:38:54.292Z,12.02
2022-11-09T16:41:22.125Z,11.55
2022-11-09T16:43:53.703Z,11.88
2022-11-09T16:46:24.836Z,13.35
2022-11-09T16:48:53.673Z,11.63
2022-11-09T16:51:20.754Z,13.07
2022-11-09T16:53:48.081Z,12.05
2022-11-09T16:56:15.007Z,13.05
2022-11-09T16:58:42.066Z,13.10
2022-11-09T17:01:12.390Z,11.18
2022-11-09T17:03:40.198Z,12.93
2022-11-09T17:06:11.492Z,13.77
2022-11-09T17:08:39.530Z,13.77
2022-11-09T17:11:15.446Z,12.95
2022-11-09T17:13:42.647Z,14.13
2022-11-09T17:16:12.521Z,14.23
2022-11-09T17:18:42.659Z,14.57
2022-11-09T17:21:11.811Z,14.35
2022-11-09T17:23:39.039Z,13.37
2022-11-09T17:26:07.723Z,13.98
2022-11-09T17:28:40.069Z,13.90
2022-11-09T17:31:17.552Z,14.05
2022-11-09T17:33:46.454Z,14.02
2022-11-09T17:36:17.017Z,14.48
2022-11-09T17:38:47.529Z,14.10
2022-11-09T17:41:17.112Z,13.70
2022-11-09T17:43:45.958Z,13.48
2022-11-09T17:46:20.379Z,14.77
2022-11-09T17:48:50.535Z,13.32
2022-11-09T17:53:47.513Z,14.18
2022-11-09T17:56:14.700Z,14.05
2022-11-09T17:58:44.175Z,14.60
2022-11-09T18:01:14.553Z,14.57
2022-11-09T18:03:42.870Z,15.13
2022-11-09T18:06:17.304Z,14.90
2022-11-09T18:08:58.326Z,14.88
2022-11-09T18:11:34.763Z,15.00
2022-11-09T18:14:02.000Z,15.88
2022-11-09T18:16:30.951Z,15.55
2022-11-09T18:19:02.358Z,15.95
2022-11-09T18:21:29.772Z,15.45
2022-11-09T18:23:57.209Z,14.18
2022-11-09T18:26:25.072Z,14.45
2022-11-09T18:28:52.524Z,15.65
2022-11-09T18:31:22.805Z,15.57
2022-11-09T18:33:51.007Z,13.80
2022-11-09T18:36:21.799Z,15.70
2022-11-09T18:38:54.394Z,16.60
2022-11-09T18:41:23.610Z,15.85
2022-11-09T18:43:52.646Z,16.00
2022-11-09T18:46:21.609Z,14.23
2022-11-09T18:48:53.840Z,14.38
2022-11-09T18:51:21.482Z,15.65
2022-11-09T18:53:50.426Z,15.80
2022-11-09T18:56:23.587Z,15.93
2022-11-09T18:58:54.355Z,16.20
2022-11-09T19:01:27.969Z,16.65
2022-11-09T19:03:59.335Z,15.95
2022-11-09T19:06:28.191Z,15.60
2022-11-09T19:09:14.344Z,16.63
2022-11-09T19:11:41.716Z,16.00
2022-11-09T19:14:10.740Z,17.10
2022-11-09T19:16:38.511Z,16.15
2022-11-09T19:19:06.228Z,16.95
2022-11-09T19:21:50.902Z,16.20
2022-11-09T19:24:21.044Z,19.05
2022-11-09T19:26:50.135Z,16.92
2022-11-09T19:29:18.947Z,17.50
2022-11-09T19:31:47.597Z,18.95
2022-11-09T19:34:18.532Z,18.17
2022-11-09T19:36:49.275Z,17.02
2022-11-09T19:39:17.288Z,18.48
2022-11-09T19:41:45.019Z,17.58
2022-11-09T19:44:19.212Z,16.90
2022-11-09T19:46:47.795Z,17.08
2022-11-09T19:49:15.375Z,17.10
2022-11-09T19:51:43.352Z,17.90
2022-11-09T19:54:12.001Z,17.95
2022-11-09T19:56:40.482Z,16.23
2022-11-09T19:59:08.316Z,19.88
2022-11-09T20:01:36.163Z,17.90
2022-11-09T20:04:09.934Z,17.75
2022-11-09T20:06:39.533Z,16.52
2022-11-09T20:09:07.295Z,17.08
2022-11-09T20:11:54.047Z,15.55
2022-11-09T20:14:22.354Z,16.00
2022-11-09T20:16:51.139Z,17.48
2022-11-09T20:19:18.341Z,16.80
2022-11-09T20:21:45.379Z,14.95
2022-11-09T20:24:13.299Z,15.80
2022-11-09T20:26:42.895Z,16.95
2022-11-09T20:29:11.825Z,17.67
2022-11-09T20:31:42.000Z,17.38
2022-11-09T20:34:10.325Z,18.25
2022-11-09T20:36:37.591Z,18.63
2022-11-09T20:39:08.610Z,17.55
2022-11-09T20:41:40.342Z,17.85
2022-11-09T20:44:07.627Z,18.27
2022-11-09T20:46:36.734Z,19.42
2022-11-09T20:49:04.724Z,17.27
2022-11-09T20:51:33.242Z,17.75
2022-11-09T20:54:06.605Z,19.25
2022-11-09T20:56:34.982Z,18.10
2022-11-09T20:59:02.465Z,19.60
2022-11-09T21:01:30.052Z,17.58
2022-11-09T21:03:57.779Z,19.35
2022-11-09T21:06:24.998Z,19.70
2022-11-09T21:08:54.756Z,19.55
2022-11-09T21:11:24.243Z,22.10
2022-11-09T21:13:52.858Z,19.38
2022-11-09T21:16:21.624Z,21.25
2022-11-09T21:18:49.545Z,19.95
2022-11-09T21:21:20.167Z,20.52
2022-11-09T21:24:06.002Z,21.23
2022-11-09T21:26:51.911Z,20.63
2022-11-09T21:29:40.022Z,20.35
2022-11-09T21:32:08.003Z,20.17
2022-11-09T21:34:36.968Z,20.83
2022-11-09T21:37:05.431Z,21.55
2022-11-09T21:39:32.973Z,19.83
2022-11-09T21:42:00.432Z,19.50
2022-11-09T21:44:31.760Z,19.95
2022-11-09T21:46:59.251Z,21.10
2022-11-09T21:49:25.979Z,22.05
2022-11-09T21:51:53.150Z,20.77
2022-11-09T21:54:20.812Z,20.17
2022-11-09T21:56:48.261Z,20.13
2022-11-09T21:59:15.165Z,20.83
2022-11-09T22:01:42.120Z,21.00
2022-11-09T22:04:09.594Z,21.98
2022-11-09T22:06:39.111Z,21.35
2022-11-09T22:09:07.630Z,19.70
2022-11-09T22:11:53.900Z,19.88
2022-11-09T22:14:39.172Z,19.50
2022-11-09T22:17:08.780Z,17.70
2022-11-09T22:19:56.351Z,18.50
2022-11-09T22:22:23.251Z,18.67
2022-11-09T22:24:52.511Z,20.77
2022-11-09T22:27:19.317Z,19.55
2022-11-09T22:29:46.087Z,19.02
2022-11-09T22:32:12.865Z,20.38
2022-11-09T22:34:39.580Z,20.30
2022-11-09T22:37:07.292Z,19.25
2022-11-09T22:39:34.002Z,19.92
2022-11-09T22:42:00.725Z,21.70
2022-11-09T22:44:27.511Z,21.05
2022-11-09T22:46:54.333Z,21.27
2022-11-09T22:49:21.080Z,20.35
2022-11-09T22:51:47.802Z,20.73
2022-11-09T22:54:14.468Z,20.10
2022-11-09T22:56:41.271Z,19.90
2022-11-09T22:59:08.304Z,19.98
2022-11-09T23:01:35.194Z,19.80
2022-11-09T23:04:02.013Z,20.13
2022-11-09T23:06:29.348Z,20.23
2022-11-09T23:08:56.155Z,19.95
2022-11-09T23:11:25.029Z,21.83
2022-11-09T23:13:53.497Z,21.13
2022-11-09T23:16:21.630Z,22.67
2022-11-09T23:18:54.771Z,21.80
2022-11-09T23:21:27.743Z,21.05
2022-11-09T23:23:57.700Z,20.98
2022-11-09T23:26:26.562Z,20.50
2022-11-09T23:28:54.015Z,20.88
2022-11-09T23:31:24.952Z,20.90
2022-11-09T23:33:54.573Z,19.55
2022-11-09T23:36:22.732Z,21.45
2022-11-09T23:38:49.961Z,21.52
2022-11-09T23:41:17.592Z,20.52
2022-11-09T23:43:48.927Z,21.27
2022-11-09T23:46:18.174Z,20.30
2022-11-09T23:48:45.137Z,20.77
2022-11-09T23:51:12.205Z,20.65
2022-11-09T23:53:39.282Z,22.10
2022-11-09T23:56:08.897Z,20.38
2022-11-09T23:58:36.354Z,19.65
